sensor_id;sensor_type;location;lat;lon;timestamp;P1;durP1;ratioP1;P2;durP2;ratioP2
55641;SDS011;41509;53.108;6.100;2023-02-28T00:01:30;4.38;;;1.85;;
55641;SDS011;41509;53.108;6.100;2023-02-28T00:04:00;8.55;;;1.92;;
55641;SDS011;41509;53.108;6.100;2023-02-28T00:06:26;6.00;;;1.80;;
55641;SDS011;41509;53.108;6.100;2023-02-28T00:08:51;4.30;;;1.70;;
55641;SDS011;41509;53.108;6.100;2023-02-28T00:11:20;6.37;;;1.60;;
55641;SDS011;41509;53.108;6.100;2023-02-28T00:13:46;4.78;;;1.75;;
55641;SDS011;41509;53.108;6.100;2023-02-28T00:16:15;4.00;;;1.92;;
55641;SDS011;41509;53.108;6.100;2023-02-28T00:18:43;5.75;;;1.30;;
55641;SDS011;41509;53.108;6.100;2023-02-28T00:21:09;4.32;;;1.60;;
55641;SDS011;41509;53.108;6.100;2023-02-28T00:23:35;5.10;;;1.47;;
55641;SDS011;41509;53.108;6.100;2023-02-28T00:26:01;4.78;;;1.75;;
55641;SDS011;41509;53.108;6.100;2023-02-28T00:28:27;3.13;;;1.63;;
55641;SDS011;41509;53.108;6.100;2023-02-28T00:30:53;5.97;;;1.33;;
55641;SDS011;41509;53.108;6.100;2023-02-28T00:33:19;7.53;;;1.73;;
55641;SDS011;41509;53.108;6.100;2023-02-28T00:35:44;4.30;;;1.77;;
55641;SDS011;41509;53.108;6.100;2023-02-28T00:38:14;5.43;;;1.90;;
55641;SDS011;41509;53.108;6.100;2023-02-28T00:40:40;8.10;;;2.00;;
55641;SDS011;41509;53.108;6.100;2023-02-28T00:43:05;6.63;;;1.80;;
55641;SDS011;41509;53.108;6.100;2023-02-28T00:45:31;5.03;;;1.87;;
55641;SDS011;41509;53.108;6.100;2023-02-28T00:47:57;9.50;;;2.03;;
55641;SDS011;41509;53.108;6.100;2023-02-28T00:50:23;4.93;;;2.10;;
55641;SDS011;41509;53.108;6.100;2023-02-28T00:52:48;6.27;;;2.23;;
55641;SDS011;41509;53.108;6.100;2023-02-28T00:55:14;4.23;;;1.50;;
55641;SDS011;41509;53.108;6.100;2023-02-28T00:57:40;3.47;;;1.73;;
55641;SDS011;41509;53.108;6.100;2023-02-28T01:00:05;5.03;;;1.63;;
55641;SDS011;41509;53.108;6.100;2023-02-28T01:02:32;9.48;;;2.28;;
55641;SDS011;41509;53.108;6.100;2023-02-28T01:04:58;4.23;;;1.70;;
55641;SDS011;41509;53.108;6.100;2023-02-28T01:07:23;6.77;;;2.20;;
55641;SDS011;41509;53.108;6.100;2023-02-28T01:09:49;4.20;;;2.03;;
55641;SDS011;41509;53.108;6.100;2023-02-28T01:12:15;6.23;;;1.73;;
55641;SDS011;41509;53.108;6.100;2023-02-28T01:14:41;7.40;;;1.80;;
55641;SDS011;41509;53.108;6.100;2023-02-28T01:17:07;8.23;;;2.53;;
55641;SDS011;41509;53.108;6.100;2023-02-28T01:19:33;4.77;;;1.47;;
55641;SDS011;41509;53.108;6.100;2023-02-28T01:22:03;5.05;;;2.10;;
55641;SDS011;41509;53.108;6.100;2023-02-28T01:24:30;6.80;;;2.40;;
55641;SDS011;41509;53.108;6.100;2023-02-28T01:26:55;5.90;;;1.95;;
55641;SDS011;41509;53.108;6.100;2023-02-28T01:29:21;7.53;;;2.07;;
55641;SDS011;41509;53.108;6.100;2023-02-28T01:31:50;6.20;;;1.60;;
55641;SDS011;41509;53.108;6.100;2023-02-28T01:34:16;5.82;;;2.00;;
55641;SDS011;41509;53.108;6.100;2023-02-28T01:36:44;11.30;;;2.15;;
55641;SDS011;41509;53.108;6.100;2023-02-28T01:39:09;3.57;;;1.67;;
55641;SDS011;41509;53.108;6.100;2023-02-28T01:41:35;5.70;;;1.77;;
55641;SDS011;41509;53.108;6.100;2023-02-28T01:44:05;4.73;;;1.33;;
55641;SDS011;41509;53.108;6.100;2023-02-28T01:46:35;6.90;;;2.20;;
55641;SDS011;41509;53.108;6.100;2023-02-28T01:51:37;8.13;;;2.28;;
55641;SDS011;41509;53.108;6.100;2023-02-28T01:54:22;5.45;;;1.90;;
55641;SDS011;41509;53.108;6.100;2023-02-28T01:56:59;6.10;;;1.60;;
55641;SDS011;41509;53.108;6.100;2023-02-28T01:59:37;9.00;;;1.40;;
55641;SDS011;41509;53.108;6.100;2023-02-28T02:02:11;4.20;;;1.60;;
55641;SDS011;41509;53.108;6.100;2023-02-28T02:07:24;4.28;;;1.42;;
55641;SDS011;41509;53.108;6.100;2023-02-28T02:09:58;6.90;;;1.90;;
55641;SDS011;41509;53.108;6.100;2023-02-28T02:12:29;3.40;;;1.58;;
55641;SDS011;41509;53.108;6.100;2023-02-28T02:15:16;6.95;;;2.08;;
55641;SDS011;41509;53.108;6.100;2023-02-28T02:17:51;3.75;;;1.33;;
55641;SDS011;41509;53.108;6.100;2023-02-28T02:20:27;5.22;;;1.77;;
55641;SDS011;41509;53.108;6.100;2023-02-28T02:25:56;9.10;;;1.67;;
55641;SDS011;41509;53.108;6.100;2023-02-28T02:36:06;5.17;;;1.50;;
55641;SDS011;41509;53.108;6.100;2023-02-28T02:41:36;6.65;;;1.17;;
55641;SDS011;41509;53.108;6.100;2023-02-28T02:44:13;3.42;;;1.63;;
55641;SDS011;41509;53.108;6.100;2023-02-28T02:46:47;3.43;;;1.33;;
55641;SDS011;41509;53.108;6.100;2023-02-28T02:49:26;4.40;;;1.25;;
55641;SDS011;41509;53.108;6.100;2023-02-28T02:51:56;5.63;;;1.65;;
55641;SDS011;41509;53.108;6.100;2023-02-28T02:54:28;8.50;;;2.05;;
55641;SDS011;41509;53.108;6.100;2023-02-28T02:56:57;5.43;;;1.90;;
55641;SDS011;41509;53.108;6.100;2023-02-28T02:59:26;7.53;;;1.38;;
55641;SDS011;41509;53.108;6.100;2023-02-28T03:01:55;6.57;;;2.10;;
55641;SDS011;41509;53.108;6.100;2023-02-28T03:04:28;5.07;;;1.50;;
55641;SDS011;41509;53.108;6.100;2023-02-28T03:06:58;8.23;;;1.52;;
55641;SDS011;41509;53.108;6.100;2023-02-28T03:09:24;5.37;;;1.50;;
55641;SDS011;41509;53.108;6.100;2023-02-28T03:11:50;3.45;;;1.73;;
55641;SDS011;41509;53.108;6.100;2023-02-28T03:14:29;6.78;;;2.17;;
55641;SDS011;41509;53.108;6.100;2023-02-28T03:30:35;4.60;;;2.30;;
55641;SDS011;41509;53.108;6.100;2023-02-28T03:33:11;6.82;;;1.60;;
55641;SDS011;41509;53.108;6.100;2023-02-28T03:35:47;4.82;;;1.50;;
55641;SDS011;41509;53.108;6.100;2023-02-28T03:38:20;7.38;;;2.20;;
55641;SDS011;41509;53.108;6.100;2023-02-28T03:41:05;4.97;;;1.63;;
55641;SDS011;41509;53.108;6.100;2023-02-28T03:43:35;4.30;;;1.65;;
55641;SDS011;41509;53.108;6.100;2023-02-28T03:46:08;5.88;;;2.22;;
55641;SDS011;41509;53.108;6.100;2023-02-28T03:48:40;4.85;;;1.67;;
55641;SDS011;41509;53.108;6.100;2023-02-28T03:51:09;6.70;;;1.55;;
55641;SDS011;41509;53.108;6.100;2023-02-28T03:53:42;3.42;;;1.60;;
55641;SDS011;41509;53.108;6.100;2023-02-28T03:56:22;5.25;;;1.67;;
55641;SDS011;41509;53.108;6.100;2023-02-28T04:01:24;6.13;;;1.75;;
55641;SDS011;41509;53.108;6.100;2023-02-28T04:06:25;3.15;;;1.42;;
55641;SDS011;41509;53.108;6.100;2023-02-28T04:08:51;5.60;;;1.40;;
55641;SDS011;41509;53.108;6.100;2023-02-28T04:13:47;3.03;;;1.48;;
55641;SDS011;41509;53.108;6.100;2023-02-28T04:16:13;3.60;;;1.48;;
55641;SDS011;41509;53.108;6.100;2023-02-28T04:18:39;3.20;;;1.23;;
55641;SDS011;41509;53.108;6.100;2023-02-28T04:21:05;5.60;;;1.70;;
55641;SDS011;41509;53.108;6.100;2023-02-28T04:23:32;3.80;;;1.20;;
55641;SDS011;41509;53.108;6.100;2023-02-28T04:25:58;2.50;;;1.23;;
55641;SDS011;41509;53.108;6.100;2023-02-28T04:28:24;5.38;;;2.08;;
55641;SDS011;41509;53.108;6.100;2023-02-28T04:30:56;6.30;;;2.13;;
55641;SDS011;41509;53.108;6.100;2023-02-28T04:35:59;4.90;;;2.20;;
55641;SDS011;41509;53.108;6.100;2023-02-28T04:38:37;8.50;;;3.03;;
55641;SDS011;41509;53.108;6.100;2023-02-28T04:41:03;5.10;;;2.42;;
55641;SDS011;41509;53.108;6.100;2023-02-28T04:43:29;7.35;;;2.97;;
55641;SDS011;41509;53.108;6.100;2023-02-28T04:48:23;7.05;;;3.08;;
55641;SDS011;41509;53.108;6.100;2023-02-28T04:50:50;6.72;;;3.30;;
55641;SDS011;41509;53.108;6.100;2023-02-28T04:53:16;7.10;;;3.15;;
55641;SDS011;41509;53.108;6.100;2023-02-28T04:55:42;6.30;;;3.40;;
55641;SDS011;41509;53.108;6.100;2023-02-28T04:58:08;5.57;;;3.30;;
55641;SDS011;41509;53.108;6.100;2023-02-28T05:00:33;5.50;;;2.93;;
55641;SDS011;41509;53.108;6.100;2023-02-28T05:02:59;4.03;;;2.30;;
55641;SDS011;41509;53.108;6.100;2023-02-28T05:05:25;5.40;;;2.70;;
55641;SDS011;41509;53.108;6.100;2023-02-28T05:07:50;5.27;;;2.43;;
55641;SDS011;41509;53.108;6.100;2023-02-28T05:10:16;5.57;;;2.67;;
55641;SDS011;41509;53.108;6.100;2023-02-28T05:12:42;4.20;;;2.07;;
55641;SDS011;41509;53.108;6.100;2023-02-28T05:15:09;6.70;;;2.30;;
55641;SDS011;41509;53.108;6.100;2023-02-28T05:17:38;5.45;;;2.25;;
55641;SDS011;41509;53.108;6.100;2023-02-28T05:20:04;4.97;;;2.43;;
55641;SDS011;41509;53.108;6.100;2023-02-28T05:22:31;3.47;;;2.00;;
55641;SDS011;41509;53.108;6.100;2023-02-28T05:24:57;4.07;;;1.83;;
55641;SDS011;41509;53.108;6.100;2023-02-28T05:27:22;3.27;;;2.10;;
55641;SDS011;41509;53.108;6.100;2023-02-28T05:29:48;4.28;;;2.55;;
55641;SDS011;41509;53.108;6.100;2023-02-28T05:32:14;3.73;;;2.40;;
55641;SDS011;41509;53.108;6.100;2023-02-28T05:34:40;3.88;;;2.30;;
55641;SDS011;41509;53.108;6.100;2023-02-28T05:37:08;4.45;;;2.40;;
55641;SDS011;41509;53.108;6.100;2023-02-28T05:39:37;3.47;;;2.38;;
55641;SDS011;41509;53.108;6.100;2023-02-28T05:42:03;4.80;;;2.92;;
55641;SDS011;41509;53.108;6.100;2023-02-28T05:44:29;5.55;;;2.55;;
55641;SDS011;41509;53.108;6.100;2023-02-28T05:46:55;7.13;;;2.97;;
55641;SDS011;41509;53.108;6.100;2023-02-28T05:49:21;7.20;;;3.03;;
55641;SDS011;41509;53.108;6.100;2023-02-28T05:51:46;4.57;;;2.60;;
55641;SDS011;41509;53.108;6.100;2023-02-28T05:54:12;5.23;;;2.60;;
55641;SDS011;41509;53.108;6.100;2023-02-28T05:56:38;4.57;;;2.57;;
55641;SDS011;41509;53.108;6.100;2023-02-28T05:59:05;3.65;;;2.20;;
55641;SDS011;41509;53.108;6.100;2023-02-28T06:04:03;3.88;;;2.08;;
55641;SDS011;41509;53.108;6.100;2023-02-28T06:06:30;3.75;;;2.20;;
55641;SDS011;41509;53.108;6.100;2023-02-28T06:08:56;5.10;;;2.23;;
55641;SDS011;41509;53.108;6.100;2023-02-28T06:11:22;3.45;;;2.10;;
55641;SDS011;41509;53.108;6.100;2023-02-28T06:14:01;3.92;;;2.13;;
55641;SDS011;41509;53.108;6.100;2023-02-28T06:16:27;3.85;;;2.10;;
55641;SDS011;41509;53.108;6.100;2023-02-28T06:18:54;4.57;;;2.50;;
55641;SDS011;41509;53.108;6.100;2023-02-28T06:21:22;4.38;;;2.58;;
55641;SDS011;41509;53.108;6.100;2023-02-28T06:23:47;6.80;;;3.43;;
55641;SDS011;41509;53.108;6.100;2023-02-28T06:26:13;8.70;;;3.67;;
55641;SDS011;41509;53.108;6.100;2023-02-28T06:28:39;8.60;;;3.70;;
55641;SDS011;41509;53.108;6.100;2023-02-28T06:31:05;8.30;;;4.13;;
55641;SDS011;41509;53.108;6.100;2023-02-28T06:33:33;8.30;;;4.30;;
55641;SDS011;41509;53.108;6.100;2023-02-28T06:35:59;9.10;;;4.60;;
55641;SDS011;41509;53.108;6.100;2023-02-28T06:38:24;9.15;;;4.22;;
55641;SDS011;41509;53.108;6.100;2023-02-28T06:40:54;12.07;;;4.90;;
55641;SDS011;41509;53.108;6.100;2023-02-28T06:43:20;10.50;;;4.43;;
55641;SDS011;41509;53.108;6.100;2023-02-28T06:45:47;9.30;;;4.35;;
55641;SDS011;41509;53.108;6.100;2023-02-28T06:48:12;9.03;;;5.33;;
55641;SDS011;41509;53.108;6.100;2023-02-28T06:50:38;6.77;;;3.50;;
55641;SDS011;41509;53.108;6.100;2023-02-28T06:53:04;7.37;;;3.90;;
55641;SDS011;41509;53.108;6.100;2023-02-28T06:55:30;9.20;;;4.60;;
55641;SDS011;41509;53.108;6.100;2023-02-28T06:57:56;9.13;;;3.72;;
55641;SDS011;41509;53.108;6.100;2023-02-28T07:00:22;8.10;;;3.78;;
55641;SDS011;41509;53.108;6.100;2023-02-28T07:02:48;9.33;;;4.70;;
55641;SDS011;41509;53.108;6.100;2023-02-28T07:05:14;10.03;;;4.50;;
55641;SDS011;41509;53.108;6.100;2023-02-28T07:07:39;8.53;;;4.90;;
55641;SDS011;41509;53.108;6.100;2023-02-28T07:10:09;7.53;;;4.18;;
55641;SDS011;41509;53.108;6.100;2023-02-28T07:12:36;9.07;;;4.72;;
55641;SDS011;41509;53.108;6.100;2023-02-28T07:15:02;10.38;;;5.45;;
55641;SDS011;41509;53.108;6.100;2023-02-28T07:17:29;11.70;;;5.50;;
55641;SDS011;41509;53.108;6.100;2023-02-28T07:19:55;8.73;;;5.13;;
55641;SDS011;41509;53.108;6.100;2023-02-28T07:22:21;10.77;;;5.40;;
55641;SDS011;41509;53.108;6.100;2023-02-28T07:24:46;8.60;;;4.90;;
55641;SDS011;41509;53.108;6.100;2023-02-28T07:27:12;16.97;;;6.27;;
55641;SDS011;41509;53.108;6.100;2023-02-28T07:29:50;10.50;;;5.10;;
55641;SDS011;41509;53.108;6.100;2023-02-28T07:32:16;9.43;;;4.67;;
55641;SDS011;41509;53.108;6.100;2023-02-28T07:34:41;11.90;;;5.47;;
55641;SDS011;41509;53.108;6.100;2023-02-28T07:37:07;13.17;;;6.17;;
55641;SDS011;41509;53.108;6.100;2023-02-28T07:39:33;11.03;;;5.77;;
55641;SDS011;41509;53.108;6.100;2023-02-28T07:41:59;10.37;;;5.13;;
55641;SDS011;41509;53.108;6.100;2023-02-28T07:44:25;10.18;;;5.63;;
55641;SDS011;41509;53.108;6.100;2023-02-28T07:46:51;11.60;;;5.93;;
55641;SDS011;41509;53.108;6.100;2023-02-28T07:49:17;10.02;;;5.45;;
55641;SDS011;41509;53.108;6.100;2023-02-28T07:51:43;9.93;;;5.40;;
55641;SDS011;41509;53.108;6.100;2023-02-28T07:54:09;10.37;;;5.80;;
55641;SDS011;41509;53.108;6.100;2023-02-28T07:56:35;10.07;;;5.57;;
55641;SDS011;41509;53.108;6.100;2023-02-28T07:59:00;10.07;;;5.90;;
55641;SDS011;41509;53.108;6.100;2023-02-28T08:01:27;10.73;;;5.75;;
55641;SDS011;41509;53.108;6.100;2023-02-28T08:03:53;12.43;;;5.55;;
55641;SDS011;41509;53.108;6.100;2023-02-28T08:06:21;12.27;;;5.72;;
55641;SDS011;41509;53.108;6.100;2023-02-28T08:08:48;12.48;;;5.85;;
55641;SDS011;41509;53.108;6.100;2023-02-28T08:11:15;13.40;;;6.18;;
55641;SDS011;41509;53.108;6.100;2023-02-28T08:13:41;12.93;;;5.68;;
55641;SDS011;41509;53.108;6.100;2023-02-28T08:16:08;10.98;;;6.13;;
55641;SDS011;41509;53.108;6.100;2023-02-28T08:18:35;11.02;;;6.07;;
55641;SDS011;41509;53.108;6.100;2023-02-28T08:21:08;11.40;;;5.80;;
55641;SDS011;41509;53.108;6.100;2023-02-28T08:23:34;11.02;;;5.75;;
55641;SDS011;41509;53.108;6.100;2023-02-28T08:26:00;11.73;;;6.18;;
55641;SDS011;41509;53.108;6.100;2023-02-28T08:28:26;13.97;;;6.33;;
55641;SDS011;41509;53.108;6.100;2023-02-28T08:30:52;12.93;;;6.37;;
55641;SDS011;41509;53.108;6.100;2023-02-28T08:33:18;13.88;;;6.45;;
55641;SDS011;41509;53.108;6.100;2023-02-28T08:35:44;12.53;;;7.03;;
55641;SDS011;41509;53.108;6.100;2023-02-28T08:38:10;11.17;;;6.43;;
55641;SDS011;41509;53.108;6.100;2023-02-28T08:40:35;19.20;;;8.73;;
55641;SDS011;41509;53.108;6.100;2023-02-28T08:43:01;14.83;;;6.80;;
55641;SDS011;41509;53.108;6.100;2023-02-28T08:45:26;11.97;;;6.13;;
55641;SDS011;41509;53.108;6.100;2023-02-28T08:47:53;12.00;;;6.57;;
55641;SDS011;41509;53.108;6.100;2023-02-28T08:50:20;14.27;;;6.60;;
55641;SDS011;41509;53.108;6.100;2023-02-28T08:52:46;15.73;;;7.27;;
55641;SDS011;41509;53.108;6.100;2023-02-28T08:55:11;14.60;;;7.00;;
55641;SDS011;41509;53.108;6.100;2023-02-28T08:57:37;16.17;;;7.40;;
55641;SDS011;41509;53.108;6.100;2023-02-28T09:00:03;14.03;;;7.37;;
55641;SDS011;41509;53.108;6.100;2023-02-28T09:02:32;13.32;;;7.00;;
55641;SDS011;41509;53.108;6.100;2023-02-28T09:04:58;14.73;;;6.82;;
55641;SDS011;41509;53.108;6.100;2023-02-28T09:07:24;14.63;;;7.07;;
55641;SDS011;41509;53.108;6.100;2023-02-28T09:09:50;14.27;;;6.20;;
55641;SDS011;41509;53.108;6.100;2023-02-28T09:12:22;12.80;;;6.78;;
55641;SDS011;41509;53.108;6.100;2023-02-28T09:14:52;12.18;;;6.20;;
55641;SDS011;41509;53.108;6.100;2023-02-28T09:17:18;12.30;;;6.65;;
55641;SDS011;41509;53.108;6.100;2023-02-28T09:19:44;11.43;;;6.38;;
55641;SDS011;41509;53.108;6.100;2023-02-28T09:22:12;12.30;;;6.15;;
55641;SDS011;41509;53.108;6.100;2023-02-28T09:24:38;12.10;;;6.30;;
55641;SDS011;41509;53.108;6.100;2023-02-28T09:27:04;10.13;;;5.93;;
55641;SDS011;41509;53.108;6.100;2023-02-28T09:29:33;12.32;;;5.88;;
55641;SDS011;41509;53.108;6.100;2023-02-28T09:32:00;14.73;;;6.05;;
55641;SDS011;41509;53.108;6.100;2023-02-28T09:34:26;10.80;;;5.25;;
55641;SDS011;41509;53.108;6.100;2023-02-28T09:36:55;8.98;;;5.03;;
55641;SDS011;41509;53.108;6.100;2023-02-28T09:39:22;11.05;;;5.63;;
55641;SDS011;41509;53.108;6.100;2023-02-28T09:41:49;10.00;;;5.38;;
55641;SDS011;41509;53.108;6.100;2023-02-28T09:44:19;11.70;;;5.40;;
55641;SDS011;41509;53.108;6.100;2023-02-28T09:46:55;9.13;;;5.32;;
55641;SDS011;41509;53.108;6.100;2023-02-28T09:49:25;10.13;;;4.78;;
55641;SDS011;41509;53.108;6.100;2023-02-28T09:52:10;11.18;;;4.70;;
55641;SDS011;41509;53.108;6.100;2023-02-28T09:54:44;14.98;;;6.32;;
55641;SDS011;41509;53.108;6.100;2023-02-28T10:05:20;8.55;;;4.88;;
55641;SDS011;41509;53.108;6.100;2023-02-28T10:10:57;9.38;;;4.50;;
55641;SDS011;41509;53.108;6.100;2023-02-28T10:16:15;11.57;;;4.55;;
55641;SDS011;41509;53.108;6.100;2023-02-28T10:18:50;10.95;;;4.55;;
55641;SDS011;41509;53.108;6.100;2023-02-28T10:27:00;10.18;;;4.43;;
55641;SDS011;41509;53.108;6.100;2023-02-28T10:29:30;8.68;;;4.13;;
55641;SDS011;41509;53.108;6.100;2023-02-28T10:31:58;11.73;;;5.03;;
55641;SDS011;41509;53.108;6.100;2023-02-28T10:34:27;7.70;;;4.15;;
55641;SDS011;41509;53.108;6.100;2023-02-28T10:36:52;6.33;;;3.73;;
55641;SDS011;41509;53.108;6.100;2023-02-28T10:42:05;9.18;;;3.70;;
55641;SDS011;41509;53.108;6.100;2023-02-28T10:44:59;7.30;;;3.95;;
55641;SDS011;41509;53.108;6.100;2023-02-28T10:47:53;7.45;;;3.17;;
55641;SDS011;41509;53.108;6.100;2023-02-28T11:01:47;5.97;;;3.10;;
55641;SDS011;41509;53.108;6.100;2023-02-28T11:07:01;6.82;;;3.33;;
55641;SDS011;41509;53.108;6.100;2023-02-28T11:09:33;4.45;;;2.20;;
55641;SDS011;41509;53.108;6.100;2023-02-28T11:12:01;3.85;;;2.10;;
55641;SDS011;41509;53.108;6.100;2023-02-28T11:14:30;5.50;;;2.53;;
55641;SDS011;41509;53.108;6.100;2023-02-28T11:17:00;3.78;;;2.00;;
55641;SDS011;41509;53.108;6.100;2023-02-28T11:19:39;3.28;;;1.98;;
55641;SDS011;41509;53.108;6.100;2023-02-28T11:22:09;2.90;;;1.70;;
55641;SDS011;41509;53.108;6.100;2023-02-28T11:24:43;4.10;;;1.80;;
55641;SDS011;41509;53.108;6.100;2023-02-28T11:29:57;3.72;;;1.90;;
55641;SDS011;41509;53.108;6.100;2023-02-28T11:32:24;3.85;;;2.03;;
55641;SDS011;41509;53.108;6.100;2023-02-28T11:37:34;3.90;;;1.90;;
55641;SDS011;41509;53.108;6.100;2023-02-28T11:40:01;2.65;;;1.55;;
55641;SDS011;41509;53.108;6.100;2023-02-28T11:50:31;5.03;;;2.20;;
55641;SDS011;41509;53.108;6.100;2023-02-28T11:56:05;4.13;;;2.20;;
55641;SDS011;41509;53.108;6.100;2023-02-28T11:58:47;4.15;;;1.95;;
55641;SDS011;41509;53.108;6.100;2023-02-28T12:03:48;5.20;;;2.33;;
55641;SDS011;41509;53.108;6.100;2023-02-28T12:19:39;4.43;;;1.70;;
55641;SDS011;41509;53.108;6.100;2023-02-28T12:28:13;3.13;;;1.92;;
55641;SDS011;41509;53.108;6.100;2023-02-28T12:30:50;4.18;;;2.33;;
55641;SDS011;41509;53.108;6.100;2023-02-28T12:33:22;6.57;;;1.98;;
55641;SDS011;41509;53.108;6.100;2023-02-28T12:35:57;4.50;;;2.17;;
55641;SDS011;41509;53.108;6.100;2023-02-28T12:38:28;5.55;;;2.30;;
55641;SDS011;41509;53.108;6.100;2023-02-28T12:41:02;3.63;;;1.98;;
55641;SDS011;41509;53.108;6.100;2023-02-28T12:43:37;4.22;;;2.13;;
55641;SDS011;41509;53.108;6.100;2023-02-28T12:46:22;3.67;;;2.35;;
55641;SDS011;41509;53.108;6.100;2023-02-28T12:49:12;5.18;;;2.08;;
55641;SDS011;41509;53.108;6.100;2023-02-28T12:51:45;3.83;;;2.17;;
55641;SDS011;41509;53.108;6.100;2023-02-28T12:59:40;5.95;;;2.33;;
55641;SDS011;41509;53.108;6.100;2023-02-28T13:10:48;5.63;;;2.42;;
55641;SDS011;41509;53.108;6.100;2023-02-28T13:13:23;5.05;;;2.30;;
55641;SDS011;41509;53.108;6.100;2023-02-28T13:16:09;3.58;;;2.03;;
55641;SDS011;41509;53.108;6.100;2023-02-28T13:18:36;5.38;;;2.00;;
55641;SDS011;41509;53.108;6.100;2023-02-28T13:21:21;5.68;;;2.30;;
55641;SDS011;41509;53.108;6.100;2023-02-28T13:28:59;5.93;;;2.47;;
55641;SDS011;41509;53.108;6.100;2023-02-28T13:31:26;2.78;;;1.73;;
55641;SDS011;41509;53.108;6.100;2023-02-28T13:36:25;4.90;;;2.30;;
55641;SDS011;41509;53.108;6.100;2023-02-28T13:44:39;4.78;;;2.28;;
55641;SDS011;41509;53.108;6.100;2023-02-28T13:51:51;3.20;;;1.95;;
55641;SDS011;41509;53.108;6.100;2023-02-28T13:54:29;2.85;;;1.42;;
55641;SDS011;41509;53.108;6.100;2023-02-28T14:05:26;4.40;;;2.60;;
55641;SDS011;41509;53.108;6.100;2023-02-28T14:07:58;3.22;;;1.95;;
55641;SDS011;41509;53.108;6.100;2023-02-28T14:10:37;5.45;;;2.08;;
55641;SDS011;41509;53.108;6.100;2023-02-28T14:16:00;4.85;;;2.22;;
55641;SDS011;41509;53.108;6.100;2023-02-28T14:18:32;2.88;;;1.98;;
55641;SDS011;41509;53.108;6.100;2023-02-28T14:24:00;2.45;;;1.58;;
55641;SDS011;41509;53.108;6.100;2023-02-28T14:35:05;5.88;;;2.67;;
55641;SDS011;41509;53.108;6.100;2023-02-28T14:37:47;2.50;;;1.80;;
55641;SDS011;41509;53.108;6.100;2023-02-28T14:40:21;4.03;;;2.30;;
55641;SDS011;41509;53.108;6.100;2023-02-28T14:43:02;3.28;;;2.30;;
55641;SDS011;41509;53.108;6.100;2023-02-28T14:45:31;3.53;;;2.10;;
55641;SDS011;41509;53.108;6.100;2023-02-28T14:47:58;3.97;;;2.08;;
55641;SDS011;41509;53.108;6.100;2023-02-28T14:50:32;4.20;;;2.25;;
55641;SDS011;41509;53.108;6.100;2023-02-28T14:53:00;5.95;;;2.50;;
55641;SDS011;41509;53.108;6.100;2023-02-28T14:58:03;4.70;;;2.67;;
55641;SDS011;41509;53.108;6.100;2023-02-28T15:00:35;4.68;;;2.80;;
55641;SDS011;41509;53.108;6.100;2023-02-28T15:05:58;3.83;;;2.25;;
55641;SDS011;41509;53.108;6.100;2023-02-28T15:08:26;5.28;;;2.45;;
55641;SDS011;41509;53.108;6.100;2023-02-28T15:10:58;4.55;;;2.30;;
55641;SDS011;41509;53.108;6.100;2023-02-28T15:13:29;4.53;;;2.15;;
55641;SDS011;41509;53.108;6.100;2023-02-28T15:16:11;3.83;;;1.88;;
55641;SDS011;41509;53.108;6.100;2023-02-28T15:18:45;5.93;;;2.17;;
55641;SDS011;41509;53.108;6.100;2023-02-28T15:21:21;5.15;;;2.53;;
55641;SDS011;41509;53.108;6.100;2023-02-28T15:23:57;4.45;;;2.42;;
55641;SDS011;41509;53.108;6.100;2023-02-28T15:26:30;3.58;;;2.25;;
55641;SDS011;41509;53.108;6.100;2023-02-28T15:29:00;9.15;;;2.47;;
55641;SDS011;41509;53.108;6.100;2023-02-28T15:31:31;6.70;;;2.50;;
55641;SDS011;41509;53.108;6.100;2023-02-28T15:34:02;3.50;;;1.77;;
55641;SDS011;41509;53.108;6.100;2023-02-28T15:36:30;3.65;;;2.47;;
55641;SDS011;41509;53.108;6.100;2023-02-28T15:38:58;5.95;;;2.72;;
55641;SDS011;41509;53.108;6.100;2023-02-28T15:41:35;5.00;;;2.58;;
55641;SDS011;41509;53.108;6.100;2023-02-28T15:44:25;4.65;;;2.70;;
55641;SDS011;41509;53.108;6.100;2023-02-28T15:46:55;4.75;;;2.50;;
55641;SDS011;41509;53.108;6.100;2023-02-28T15:49:31;6.47;;;2.63;;
55641;SDS011;41509;53.108;6.100;2023-02-28T15:52:17;7.57;;;3.05;;
55641;SDS011;41509;53.108;6.100;2023-02-28T15:54:46;5.80;;;2.65;;
55641;SDS011;41509;53.108;6.100;2023-02-28T15:57:13;4.43;;;2.65;;
55641;SDS011;41509;53.108;6.100;2023-02-28T15:59:49;5.68;;;2.85;;
55641;SDS011;41509;53.108;6.100;2023-02-28T16:02:33;6.35;;;3.45;;
55641;SDS011;41509;53.108;6.100;2023-02-28T16:07:41;8.80;;;3.67;;
55641;SDS011;41509;53.108;6.100;2023-02-28T16:10:09;7.57;;;3.60;;
55641;SDS011;41509;53.108;6.100;2023-02-28T16:12:37;4.90;;;2.90;;
55641;SDS011;41509;53.108;6.100;2023-02-28T16:15:08;5.65;;;3.05;;
55641;SDS011;41509;53.108;6.100;2023-02-28T16:17:41;4.53;;;2.70;;
55641;SDS011;41509;53.108;6.100;2023-02-28T16:20:14;5.43;;;2.90;;
55641;SDS011;41509;53.108;6.100;2023-02-28T16:22:45;5.50;;;2.63;;
55641;SDS011;41509;53.108;6.100;2023-02-28T16:25:11;6.93;;;3.10;;
55641;SDS011;41509;53.108;6.100;2023-02-28T16:27:40;7.63;;;3.55;;
55641;SDS011;41509;53.108;6.100;2023-02-28T16:30:09;9.23;;;3.53;;
55641;SDS011;41509;53.108;6.100;2023-02-28T16:32:44;5.82;;;3.67;;
55641;SDS011;41509;53.108;6.100;2023-02-28T16:37:36;6.05;;;3.70;;
55641;SDS011;41509;53.108;6.100;2023-02-28T16:40:03;10.80;;;4.83;;
55641;SDS011;41509;53.108;6.100;2023-02-28T16:42:28;7.55;;;3.63;;
55641;SDS011;41509;53.108;6.100;2023-02-28T16:44:56;8.77;;;4.32;;
55641;SDS011;41509;53.108;6.100;2023-02-28T16:47:23;10.93;;;4.70;;
55641;SDS011;41509;53.108;6.100;2023-02-28T16:49:51;13.10;;;5.00;;
55641;SDS011;41509;53.108;6.100;2023-02-28T16:52:17;8.18;;;4.35;;
55641;SDS011;41509;53.108;6.100;2023-02-28T16:54:43;9.43;;;4.25;;
55641;SDS011;41509;53.108;6.100;2023-02-28T16:57:19;13.00;;;4.43;;
55641;SDS011;41509;53.108;6.100;2023-02-28T16:59:47;8.05;;;4.40;;
55641;SDS011;41509;53.108;6.100;2023-02-28T17:02:15;7.25;;;3.95;;
55641;SDS011;41509;53.108;6.100;2023-02-28T17:04:44;5.10;;;3.10;;
55641;SDS011;41509;53.108;6.100;2023-02-28T17:07:11;9.98;;;4.03;;
55641;SDS011;41509;53.108;6.100;2023-02-28T17:09:38;5.55;;;3.72;;
55641;SDS011;41509;53.108;6.100;2023-02-28T17:12:04;7.20;;;4.00;;
55641;SDS011;41509;53.108;6.100;2023-02-28T17:14:30;7.87;;;4.23;;
55641;SDS011;41509;53.108;6.100;2023-02-28T17:19:22;7.95;;;3.92;;
55641;SDS011;41509;53.108;6.100;2023-02-28T17:21:47;7.57;;;3.93;;
55641;SDS011;41509;53.108;6.100;2023-02-28T17:24:13;7.53;;;4.30;;
55641;SDS011;41509;53.108;6.100;2023-02-28T17:26:40;6.37;;;3.73;;
55641;SDS011;41509;53.108;6.100;2023-02-28T17:29:16;6.38;;;4.20;;
55641;SDS011;41509;53.108;6.100;2023-02-28T17:31:44;7.63;;;4.18;;
55641;SDS011;41509;53.108;6.100;2023-02-28T17:34:11;8.23;;;4.43;;
55641;SDS011;41509;53.108;6.100;2023-02-28T17:36:42;9.45;;;5.05;;
55641;SDS011;41509;53.108;6.100;2023-02-28T17:39:13;9.88;;;4.95;;
55641;SDS011;41509;53.108;6.100;2023-02-28T17:41:40;14.30;;;6.47;;
55641;SDS011;41509;53.108;6.100;2023-02-28T17:44:06;9.90;;;5.35;;
55641;SDS011;41509;53.108;6.100;2023-02-28T17:46:33;7.97;;;4.80;;
55641;SDS011;41509;53.108;6.100;2023-02-28T17:48:59;11.90;;;5.75;;
55641;SDS011;41509;53.108;6.100;2023-02-28T17:51:25;13.37;;;6.00;;
55641;SDS011;41509;53.108;6.100;2023-02-28T17:53:50;14.83;;;5.17;;
55641;SDS011;41509;53.108;6.100;2023-02-28T17:56:20;13.52;;;6.50;;
55641;SDS011;41509;53.108;6.100;2023-02-28T17:58:48;14.38;;;7.03;;
55641;SDS011;41509;53.108;6.100;2023-02-28T18:01:14;24.48;;;10.98;;
55641;SDS011;41509;53.108;6.100;2023-02-28T18:03:40;24.60;;;10.52;;
55641;SDS011;41509;53.108;6.100;2023-02-28T18:06:07;13.73;;;7.47;;
55641;SDS011;41509;53.108;6.100;2023-02-28T18:08:44;13.38;;;6.18;;